Okabena, Minnesota
Current Conditions -  °F | °C
As of 1:55 PM on Saturday 20 Dec 2014 (Local Time) from KOTG Reporting Station
Overcast Overcast  
Wind Chill: 20°   Ceiling: 500
Heat Index: 30°   Visibility: 5mi
Dew Point: 27°   Wind: 14mph
Humidity: 86%   Direction: 170°S
Pressure: 30.04"   Gusts: NA
Location:  43.74°N, 95.32°W
Report Text: KOTG 201955Z AUTO 17012KT 5SM OVC005 M01/M03 A3004 RMK AO1
Loading
Personal Weather Stations






























Interactive Weather Map New forecast layout! Learn more

10-Day Weather Forecast

Advertisements
Track Severe Weather on mobile